createdAt,value
2018-07-25T00:01:38.511Z,9.83
2018-07-25T00:04:08.200Z,8.98
2018-07-25T00:06:37.011Z,9.45
2018-07-25T00:09:07.573Z,8.53
2018-07-25T00:11:36.452Z,8.78
2018-07-25T00:14:05.302Z,8.53
2018-07-25T00:16:34.571Z,8.90
2018-07-25T00:19:03.502Z,9.10
2018-07-25T00:21:32.597Z,8.68
2018-07-25T00:24:01.404Z,8.78
2018-07-25T00:26:30.472Z,9.03
2018-07-25T00:28:59.325Z,8.53
2018-07-25T00:31:28.157Z,8.73
2018-07-25T00:33:57.043Z,8.85
2018-07-25T00:36:25.945Z,8.90
2018-07-25T00:38:54.744Z,8.73
2018-07-25T00:41:23.618Z,8.73
2018-07-25T00:43:52.459Z,8.90
2018-07-25T00:46:21.294Z,8.18
2018-07-25T00:48:50.228Z,7.97
2018-07-25T00:51:19.052Z,7.83
2018-07-25T00:53:47.903Z,8.68
2018-07-25T00:56:16.831Z,8.50
2018-07-25T00:58:45.663Z,8.50
2018-07-25T01:01:14.482Z,8.53
2018-07-25T01:03:43.528Z,8.93
2018-07-25T01:06:12.349Z,8.63
2018-07-25T01:08:41.302Z,8.05
2018-07-25T01:11:09.775Z,8.03
2018-07-25T01:13:38.594Z,8.33
2018-07-25T01:16:07.740Z,7.90
2018-07-25T01:18:36.598Z,8.53
2018-07-25T01:21:05.412Z,7.70
2018-07-25T01:23:34.244Z,8.63
2018-07-25T01:26:03.127Z,8.50
2018-07-25T01:28:31.927Z,7.97
2018-07-25T01:31:00.808Z,7.90
2018-07-25T01:33:29.669Z,8.30
2018-07-25T01:35:58.495Z,8.45
2018-07-25T01:38:27.369Z,8.28
2018-07-25T01:40:56.293Z,8.23
2018-07-25T01:43:25.116Z,8.30
2018-07-25T01:45:53.949Z,8.10
2018-07-25T01:48:22.779Z,7.92
2018-07-25T01:50:51.602Z,8.18
2018-07-25T01:53:20.412Z,7.80
2018-07-25T01:55:49.291Z,7.80
2018-07-25T01:58:18.120Z,8.33
2018-07-25T02:00:48.610Z,8.30
2018-07-25T02:03:18.459Z,8.10
2018-07-25T02:05:47.403Z,8.23
2018-07-25T02:08:16.405Z,7.43
2018-07-25T02:10:45.850Z,7.63
2018-07-25T02:13:16.609Z,7.85
2018-07-25T02:15:46.103Z,7.87
2018-07-25T02:18:14.917Z,7.80
2018-07-25T02:20:43.738Z,8.10
2018-07-25T02:23:12.625Z,7.97
2018-07-25T02:25:41.448Z,7.50
2018-07-25T02:28:10.271Z,8.40
2018-07-25T02:30:39.145Z,8.00
2018-07-25T02:33:07.964Z,7.53
2018-07-25T02:35:36.775Z,7.87
2018-07-25T02:38:05.758Z,7.37
2018-07-25T02:40:34.626Z,7.43
2018-07-25T02:43:03.439Z,7.93
2018-07-25T02:45:37.630Z,7.90
2018-07-25T02:48:06.455Z,8.07
2018-07-25T02:50:35.325Z,7.60
2018-07-25T02:53:04.215Z,7.67
2018-07-25T02:55:33.101Z,7.97
2018-07-25T02:58:01.907Z,8.00
2018-07-25T03:00:30.810Z,7.45
2018-07-25T03:02:59.635Z,7.77
2018-07-25T03:05:28.479Z,7.10
2018-07-25T03:07:57.347Z,7.77
2018-07-25T03:10:26.227Z,7.33
2018-07-25T03:12:55.149Z,7.10
2018-07-25T03:15:24.047Z,7.15
2018-07-25T03:17:52.851Z,7.03
2018-07-25T03:20:21.668Z,7.37
2018-07-25T03:22:50.544Z,7.40
2018-07-25T03:25:19.409Z,6.80
2018-07-25T03:27:48.218Z,7.03
2018-07-25T03:30:17.138Z,7.20
2018-07-25T03:32:45.948Z,7.47
2018-07-25T03:35:14.767Z,6.97
2018-07-25T03:37:43.627Z,7.50
2018-07-25T03:40:12.671Z,6.83
2018-07-25T03:42:41.513Z,7.50
2018-07-25T03:45:10.399Z,7.33
2018-07-25T03:47:39.262Z,7.17
2018-07-25T03:50:08.083Z,7.05
2018-07-25T03:52:36.996Z,7.37
2018-07-25T03:55:05.850Z,7.60
2018-07-25T03:57:34.682Z,7.20
2018-07-25T04:00:03.815Z,7.30
2018-07-25T04:02:32.673Z,7.10
2018-07-25T04:05:01.528Z,7.80
2018-07-25T04:07:30.448Z,6.90
2018-07-25T04:09:59.276Z,7.95
2018-07-25T04:12:28.111Z,7.73
2018-07-25T04:14:57.519Z,7.08
2018-07-25T04:17:30.500Z,7.67
2018-07-25T04:19:59.463Z,7.33
2018-07-25T04:22:28.043Z,6.72
2018-07-25T04:24:56.869Z,7.53
2018-07-25T04:27:25.742Z,6.77
2018-07-25T04:29:54.647Z,7.10
2018-07-25T04:32:23.103Z,7.72
2018-07-25T04:34:51.987Z,7.40
2018-07-25T04:37:20.936Z,7.77
2018-07-25T04:39:49.747Z,7.75
2018-07-25T04:42:18.689Z,8.40
2018-07-25T04:44:47.499Z,7.80
2018-07-25T04:47:16.322Z,7.65
2018-07-25T04:49:45.352Z,8.37
2018-07-25T04:52:14.260Z,8.43
2018-07-25T04:54:43.155Z,7.50
2018-07-25T04:57:12.185Z,8.23
2018-07-25T04:59:41.109Z,7.53
2018-07-25T05:02:10.064Z,7.65
2018-07-25T05:04:39.006Z,8.33
2018-07-25T05:07:07.881Z,8.30
2018-07-25T05:09:37.400Z,7.37
2018-07-25T05:12:06.448Z,8.25
2018-07-25T05:14:35.276Z,7.65
2018-07-25T05:17:04.220Z,8.68
2018-07-25T05:19:33.123Z,10.60
2018-07-25T05:22:02.015Z,14.53
2018-07-25T05:24:30.888Z,11.95
2018-07-25T05:26:59.943Z,12.58
2018-07-25T05:29:28.786Z,13.03
2018-07-25T05:31:57.733Z,12.35
2018-07-25T05:34:26.547Z,10.38
2018-07-25T05:36:55.026Z,10.03
2018-07-25T05:39:23.915Z,10.30
2018-07-25T05:41:52.773Z,9.48
2018-07-25T05:44:21.706Z,9.55
2018-07-25T05:46:50.188Z,8.78
2018-07-25T05:49:19.038Z,9.00
2018-07-25T05:51:47.945Z,8.60
2018-07-25T05:54:16.849Z,8.13
2018-07-25T05:56:45.735Z,8.48
2018-07-25T05:59:14.541Z,9.03
2018-07-25T06:01:43.407Z,8.28
2018-07-25T06:04:12.265Z,7.92
2018-07-25T06:06:41.110Z,8.30
2018-07-25T06:09:10.903Z,7.67
2018-07-25T06:11:39.913Z,7.55
2018-07-25T06:14:08.955Z,8.20
2018-07-25T06:16:37.817Z,7.70
2018-07-25T06:19:06.635Z,9.10
2018-07-25T06:21:35.445Z,8.18
2018-07-25T06:24:04.383Z,8.25
2018-07-25T06:26:33.240Z,8.50
2018-07-25T06:29:02.094Z,7.85
2018-07-25T06:31:30.955Z,8.08
2018-07-25T06:33:59.800Z,7.72
2018-07-25T06:36:28.639Z,8.05
2018-07-25T06:38:57.529Z,8.45
2018-07-25T06:41:26.387Z,8.10
2018-07-25T06:43:55.222Z,7.72
2018-07-25T06:46:23.919Z,8.43
2018-07-25T06:48:52.811Z,7.83
2018-07-25T06:51:21.314Z,7.83
2018-07-25T06:53:50.224Z,8.40
2018-07-25T06:56:19.094Z,8.38
2018-07-25T06:58:48.039Z,8.78
2018-07-25T07:01:17.714Z,7.80
2018-07-25T07:03:46.571Z,8.00
2018-07-25T07:06:15.410Z,8.70
2018-07-25T07:08:44.263Z,7.72
2018-07-25T07:11:13.101Z,8.80
2018-07-25T07:13:41.949Z,8.40
2018-07-25T07:16:11.122Z,8.43
2018-07-25T07:18:39.949Z,8.25
2018-07-25T07:21:08.901Z,8.23
2018-07-25T07:23:37.777Z,8.20
2018-07-25T07:26:06.580Z,8.30
2018-07-25T07:28:35.427Z,8.28
2018-07-25T07:31:04.377Z,8.58
2018-07-25T07:33:33.927Z,8.45
2018-07-25T07:36:02.932Z,8.90
2018-07-25T07:38:31.927Z,9.20
2018-07-25T07:41:00.909Z,8.83
2018-07-25T07:43:29.782Z,9.25
2018-07-25T07:45:58.710Z,9.35
2018-07-25T07:48:27.742Z,8.58
2018-07-25T07:50:56.815Z,8.30
2018-07-25T07:53:25.808Z,8.68
2018-07-25T07:55:55.624Z,8.98
2018-07-25T07:58:25.736Z,8.50
2018-07-25T08:00:54.613Z,8.38
2018-07-25T08:04:14.172Z,8.50
2018-07-25T08:06:43.299Z,8.78
2018-07-25T08:09:13.568Z,9.08
2018-07-25T08:11:46.851Z,8.55
2018-07-25T08:14:19.682Z,9.00
2018-07-25T08:16:48.920Z,8.58
2018-07-25T08:19:17.761Z,8.23
2018-07-25T08:21:46.756Z,7.92
2018-07-25T08:24:15.568Z,8.38
2018-07-25T08:26:44.410Z,8.45
2018-07-25T08:29:13.357Z,7.92
2018-07-25T08:31:42.281Z,8.90
2018-07-25T08:34:11.239Z,7.50
2018-07-25T08:36:40.077Z,7.00
2018-07-25T08:39:09.959Z,6.97
2018-07-25T08:41:39.327Z,7.33
2018-07-25T08:44:08.997Z,7.50
2018-07-25T08:46:37.933Z,7.05
2018-07-25T08:49:06.492Z,7.00
2018-07-25T08:51:36.173Z,6.67
2018-07-25T08:54:05.104Z,7.08
2018-07-25T08:56:34.020Z,6.40
2018-07-25T08:59:02.936Z,6.83
2018-07-25T09:01:31.831Z,6.22
2018-07-25T09:04:00.683Z,6.95
2018-07-25T09:06:31.502Z,5.83
2018-07-25T09:09:00.345Z,6.25
2018-07-25T09:11:33.389Z,6.10
2018-07-25T09:14:02.219Z,6.45
2018-07-25T09:16:32.287Z,5.67
2018-07-25T09:19:01.745Z,6.10
2018-07-25T09:21:30.604Z,6.30
2018-07-25T09:23:59.460Z,6.33
2018-07-25T09:26:27.922Z,6.25
2018-07-25T09:28:56.772Z,6.22
2018-07-25T09:31:26.604Z,5.87
2018-07-25T09:33:55.570Z,5.95
2018-07-25T09:36:24.530Z,6.05
2018-07-25T09:38:53.404Z,6.22
2018-07-25T09:41:22.445Z,6.53
2018-07-25T09:43:51.291Z,6.40
2018-07-25T09:46:20.257Z,6.15
2018-07-25T09:48:49.128Z,6.17
2018-07-25T09:51:18.824Z,6.17
2018-07-25T09:53:47.712Z,6.62
2018-07-25T09:56:16.713Z,6.70
2018-07-25T09:58:45.676Z,6.35
2018-07-25T10:01:14.543Z,6.17
2018-07-25T10:03:43.520Z,6.72
2018-07-25T10:06:12.524Z,7.28
2018-07-25T10:08:41.472Z,6.62
2018-07-25T10:11:10.492Z,6.62
2018-07-25T10:13:39.397Z,6.50
2018-07-25T10:16:07.874Z,6.80
2018-07-25T10:18:36.816Z,6.75
2018-07-25T10:21:05.823Z,5.87
2018-07-25T10:23:34.772Z,6.12
2018-07-25T10:26:03.768Z,6.47
2018-07-25T10:28:32.672Z,6.55
2018-07-25T10:31:01.736Z,6.05
2018-07-25T10:33:30.833Z,6.28
2018-07-25T10:35:59.770Z,6.47
2018-07-25T10:38:28.663Z,6.45
2018-07-25T10:40:57.669Z,6.40
2018-07-25T10:43:27.554Z,6.37
2018-07-25T10:45:56.487Z,5.92
2018-07-25T10:48:25.331Z,5.33
2018-07-25T10:50:54.558Z,5.90
2018-07-25T10:53:23.412Z,5.35
2018-07-25T10:55:52.492Z,6.47
2018-07-25T10:58:22.360Z,5.53
2018-07-25T11:00:52.117Z,5.37
2018-07-25T11:03:21.567Z,5.47
2018-07-25T11:05:52.230Z,5.20
2018-07-25T11:08:21.709Z,5.30
2018-07-25T11:10:50.585Z,5.10
2018-07-25T11:13:19.447Z,5.33
2018-07-25T11:15:48.330Z,5.12
2018-07-25T11:18:17.295Z,4.70
2018-07-25T11:20:46.232Z,4.60
2018-07-25T11:23:15.635Z,4.75
2018-07-25T11:25:44.617Z,4.95
2018-07-25T11:28:13.471Z,4.78
2018-07-25T11:30:42.372Z,4.42
2018-07-25T11:33:11.482Z,4.72
2018-07-25T11:35:40.324Z,4.80
2018-07-25T11:38:10.269Z,4.78
2018-07-25T11:40:39.095Z,5.00
2018-07-25T11:43:07.953Z,5.03
2018-07-25T11:45:36.975Z,4.30
2018-07-25T11:48:06.201Z,4.62
2018-07-25T11:50:35.989Z,4.90
2018-07-25T11:53:05.403Z,4.55
2018-07-25T11:55:34.430Z,4.33
2018-07-25T11:58:03.409Z,4.50
2018-07-25T12:00:32.288Z,4.12
2018-07-25T12:03:01.120Z,4.28
2018-07-25T12:05:30.053Z,4.58
2018-07-25T12:07:58.908Z,3.92
2018-07-25T12:10:27.732Z,4.20
2018-07-25T12:12:56.756Z,4.37
2018-07-25T12:15:25.636Z,4.12
2018-07-25T12:17:54.481Z,4.85
2018-07-25T12:20:23.532Z,4.58
2018-07-25T12:22:52.542Z,4.40
2018-07-25T12:25:22.094Z,4.40
2018-07-25T12:27:51.116Z,4.33
2018-07-25T12:30:20.147Z,4.50
2018-07-25T12:32:49.161Z,4.10
2018-07-25T12:35:18.236Z,4.37
2018-07-25T12:37:46.771Z,4.12
2018-07-25T12:40:15.626Z,4.80
2018-07-25T12:42:47.172Z,4.45
2018-07-25T12:45:16.519Z,4.42
2018-07-25T12:47:45.530Z,4.65
2018-07-25T12:50:14.428Z,4.22
2018-07-25T12:52:43.711Z,4.85
2018-07-25T12:55:12.836Z,4.00
2018-07-25T12:57:41.726Z,4.45
2018-07-25T13:00:10.709Z,4.30
2018-07-25T13:02:39.683Z,4.60
2018-07-25T13:05:08.650Z,4.47
2018-07-25T13:07:37.587Z,4.00
2018-07-25T13:10:06.615Z,4.05
2018-07-25T13:12:35.569Z,4.30
2018-07-25T13:15:04.737Z,4.47
2018-07-25T13:17:33.598Z,4.40
2018-07-25T13:20:02.582Z,4.28
2018-07-25T13:22:31.443Z,4.00
2018-07-25T13:24:59.980Z,4.15
2018-07-25T13:27:28.972Z,4.15
2018-07-25T13:29:57.906Z,3.70
2018-07-25T13:32:26.811Z,4.12
2018-07-25T13:34:55.709Z,4.37
2018-07-25T13:37:24.589Z,4.20
2018-07-25T13:39:53.068Z,4.50
2018-07-25T13:42:21.984Z,3.65
2018-07-25T13:44:50.849Z,4.00
2018-07-25T13:47:19.718Z,3.92
2018-07-25T13:49:48.628Z,3.80
2018-07-25T13:52:17.500Z,3.87
2018-07-25T13:54:46.363Z,3.75
2018-07-25T13:57:15.395Z,4.05
2018-07-25T13:59:44.271Z,3.77
2018-07-25T14:02:13.220Z,4.30
2018-07-25T14:04:42.133Z,4.12
2018-07-25T14:07:11.199Z,4.22
2018-07-25T14:09:40.116Z,3.90
2018-07-25T14:12:09.276Z,4.33
2018-07-25T14:14:38.106Z,4.28
2018-07-25T14:17:07.036Z,4.50
2018-07-25T14:19:35.955Z,4.35
2018-07-25T14:22:04.916Z,4.00
2018-07-25T14:24:33.955Z,3.98
2018-07-25T14:27:02.919Z,3.95
2018-07-25T14:29:32.800Z,4.10
2018-07-25T14:32:01.589Z,3.85
2018-07-25T14:34:30.555Z,4.37
2018-07-25T14:36:59.393Z,4.10
2018-07-25T14:39:28.286Z,3.90
2018-07-25T14:41:57.192Z,3.77
2018-07-25T14:44:26.070Z,3.83
2018-07-25T14:46:55.019Z,4.37
2018-07-25T14:49:23.893Z,4.20
2018-07-25T14:51:52.915Z,4.33
2018-07-25T14:54:21.409Z,4.20
2018-07-25T14:56:50.485Z,4.12
2018-07-25T14:59:19.304Z,3.47
2018-07-25T15:01:48.193Z,3.90
2018-07-25T15:04:17.266Z,3.65
2018-07-25T15:06:46.150Z,3.42
2018-07-25T15:09:15.052Z,3.95
2018-07-25T15:11:43.734Z,3.70
2018-07-25T15:14:12.548Z,4.10
2018-07-25T15:16:41.406Z,3.77
2018-07-25T15:19:10.329Z,4.00
2018-07-25T15:21:39.266Z,4.15
2018-07-25T15:24:16.850Z,4.53
2018-07-25T15:26:45.757Z,3.50
2018-07-25T15:29:14.775Z,3.80
2018-07-25T15:31:43.730Z,4.25
2018-07-25T15:34:12.965Z,4.05
2018-07-25T15:36:51.430Z,4.28
2018-07-25T15:39:22.544Z,4.20
2018-07-25T15:41:52.147Z,4.10
2018-07-25T15:44:21.944Z,4.20
2018-07-25T15:46:50.933Z,4.72
2018-07-25T15:49:19.783Z,4.20
2018-07-25T15:51:48.771Z,3.95
2018-07-25T15:54:18.029Z,4.05
2018-07-25T15:56:46.994Z,4.08
2018-07-25T15:59:15.881Z,3.90
2018-07-25T16:01:44.817Z,3.92
2018-07-25T16:04:13.712Z,4.28
2018-07-25T16:06:42.707Z,4.05
2018-07-25T16:09:12.928Z,4.10
2018-07-25T16:11:42.949Z,3.90
2018-07-25T16:14:11.419Z,3.98
2018-07-25T16:16:40.313Z,4.58
2018-07-25T16:19:12.534Z,4.28
2018-07-25T16:21:43.494Z,4.17
2018-07-25T16:24:12.792Z,4.25
2018-07-25T16:26:41.681Z,4.17
2018-07-25T16:29:10.559Z,4.08
2018-07-25T16:31:39.601Z,4.00
2018-07-25T16:34:08.528Z,4.10
2018-07-25T16:36:37.463Z,3.67
2018-07-25T16:39:10.921Z,4.12
2018-07-25T16:41:39.440Z,4.17
2018-07-25T16:44:08.310Z,4.03
2018-07-25T16:46:37.203Z,3.92
2018-07-25T16:49:06.537Z,3.55
2018-07-25T16:51:35.740Z,4.20
2018-07-25T16:54:04.825Z,4.55
2018-07-25T16:56:33.837Z,4.45
2018-07-25T16:59:02.706Z,4.25
2018-07-25T17:01:31.624Z,3.77
2018-07-25T17:04:00.478Z,4.40
2018-07-25T17:06:29.382Z,3.90
2018-07-25T17:08:58.323Z,4.22
2018-07-25T17:11:27.377Z,4.08
2018-07-25T17:13:56.277Z,4.33
2018-07-25T17:16:25.144Z,4.62
2018-07-25T17:18:54.091Z,4.10
2018-07-25T17:21:22.631Z,4.35
2018-07-25T17:23:51.509Z,4.17
2018-07-25T17:26:21.051Z,4.40
2018-07-25T17:28:50.077Z,4.17
2018-07-25T17:31:18.608Z,4.47
2018-07-25T17:33:47.505Z,4.65
2018-07-25T17:36:17.114Z,3.62
2018-07-25T17:38:45.991Z,3.52
2018-07-25T17:41:14.994Z,4.55
2018-07-25T17:43:43.846Z,3.83
2018-07-25T17:46:12.793Z,4.62
2018-07-25T17:48:41.703Z,3.98
2018-07-25T17:51:10.683Z,4.58
2018-07-25T17:53:39.529Z,3.65
2018-07-25T17:56:08.539Z,4.17
2018-07-25T17:58:37.392Z,4.40
2018-07-25T18:01:06.233Z,4.10
2018-07-25T18:03:34.907Z,4.35
2018-07-25T18:06:03.725Z,4.25
2018-07-25T18:08:32.669Z,4.72
2018-07-25T18:11:02.533Z,4.67
2018-07-25T18:13:36.763Z,4.10
2018-07-25T18:16:05.685Z,4.80
2018-07-25T18:18:34.597Z,4.08
2018-07-25T18:21:03.553Z,4.78
2018-07-25T18:23:32.456Z,4.90
2018-07-25T18:26:01.393Z,4.90
2018-07-25T18:28:30.256Z,4.37
2018-07-25T18:30:59.160Z,4.62
2018-07-25T18:33:28.095Z,5.10
2018-07-25T18:35:57.041Z,4.97
2018-07-25T18:38:25.959Z,5.45
2018-07-25T18:40:55.433Z,4.50
2018-07-25T18:43:24.428Z,5.72
2018-07-25T18:45:53.306Z,5.65
2018-07-25T18:48:22.217Z,5.30
2018-07-25T18:50:51.077Z,5.22
2018-07-25T18:53:19.941Z,5.17
2018-07-25T18:55:48.999Z,5.80
2018-07-25T18:58:17.906Z,5.58
2018-07-25T19:00:46.797Z,6.28
2018-07-25T19:03:16.177Z,6.10
2018-07-25T19:05:45.655Z,6.83
2018-07-25T19:08:14.584Z,6.42
2018-07-25T19:10:43.568Z,5.75
2018-07-25T19:13:17.599Z,6.10
2018-07-25T19:15:46.502Z,6.95
2018-07-25T19:18:15.374Z,7.00
2018-07-25T19:20:44.315Z,7.80
2018-07-25T19:23:13.447Z,6.78
2018-07-25T19:25:42.300Z,6.70
2018-07-25T19:28:11.147Z,6.87
2018-07-25T19:30:40.037Z,6.87
2018-07-25T19:33:09.428Z,6.30
2018-07-25T19:35:37.918Z,6.92
2018-07-25T19:38:06.760Z,6.70
2018-07-25T19:40:35.679Z,6.78
2018-07-25T19:43:04.541Z,6.83
2018-07-25T19:45:33.433Z,6.78
2018-07-25T19:48:05.046Z,6.37
2018-07-25T19:50:33.556Z,6.58
2018-07-25T19:53:02.561Z,6.40
2018-07-25T19:55:31.394Z,6.72
2018-07-25T19:58:00.248Z,6.72
2018-07-25T20:00:29.195Z,6.85
2018-07-25T20:02:58.149Z,6.65
2018-07-25T20:05:26.964Z,6.40
2018-07-25T20:07:55.795Z,6.72
2018-07-25T20:10:24.685Z,6.90
2018-07-25T20:12:53.705Z,6.62
2018-07-25T20:15:27.783Z,6.67
2018-07-25T20:17:56.701Z,7.03
2018-07-25T20:20:25.541Z,6.65
2018-07-25T20:22:55.737Z,7.17
2018-07-25T20:25:24.691Z,6.75
2018-07-25T20:27:53.621Z,6.53
2018-07-25T20:30:22.516Z,6.67
2018-07-25T20:32:52.074Z,6.90
2018-07-25T20:35:20.942Z,6.62
2018-07-25T20:37:49.808Z,6.55
2018-07-25T20:40:18.647Z,6.50
2018-07-25T20:42:47.558Z,6.53
2018-07-25T20:45:16.480Z,6.30
2018-07-25T20:47:45.328Z,6.67
2018-07-25T20:50:14.149Z,7.08
2018-07-25T20:52:43.043Z,6.90
2018-07-25T20:55:11.921Z,7.03
2018-07-25T20:57:40.784Z,6.17
2018-07-25T21:00:09.801Z,6.95
2018-07-25T21:02:38.630Z,6.22
2018-07-25T21:05:07.476Z,6.87
2018-07-25T21:07:39.415Z,6.70
2018-07-25T21:10:08.277Z,6.53
2018-07-25T21:12:37.181Z,7.65
2018-07-25T21:15:06.383Z,7.30
2018-07-25T21:17:35.246Z,6.50
2018-07-25T21:20:04.176Z,6.80
2018-07-25T21:22:33.001Z,6.17
2018-07-25T21:25:01.970Z,6.20
2018-07-25T21:27:31.237Z,6.83
2018-07-25T21:30:00.050Z,6.22
2018-07-25T21:32:28.921Z,6.72
2018-07-25T21:34:57.784Z,7.08
2018-07-25T21:37:26.599Z,6.53
2018-07-25T21:39:55.457Z,6.22
2018-07-25T21:42:24.841Z,6.17
2018-07-25T21:44:53.661Z,6.70
2018-07-25T21:47:22.482Z,6.08
2018-07-25T21:49:51.353Z,6.25
2018-07-25T21:52:20.365Z,6.42
2018-07-25T21:54:49.223Z,6.08
2018-07-25T21:57:18.072Z,6.60
2018-07-25T21:59:46.922Z,6.03
2018-07-25T22:02:15.789Z,6.83
2018-07-25T22:04:44.644Z,6.65
2018-07-25T22:07:13.576Z,6.47
2018-07-25T22:09:42.434Z,5.75
2018-07-25T22:12:11.390Z,6.60
2018-07-25T22:14:40.235Z,6.00
2018-07-25T22:17:09.075Z,5.85
2018-07-25T22:19:37.983Z,6.67
2018-07-25T22:22:06.831Z,5.83
2018-07-25T22:24:35.678Z,5.85
2018-07-25T22:27:04.627Z,5.85
2018-07-25T22:29:33.446Z,5.90
2018-07-25T22:32:02.287Z,6.05
2018-07-25T22:34:31.225Z,6.05
2018-07-25T22:37:00.064Z,5.78
2018-07-25T22:39:28.888Z,5.92
2018-07-25T22:41:57.748Z,5.80
2018-07-25T22:44:26.562Z,5.95
2018-07-25T22:46:55.419Z,5.67
2018-07-25T22:49:24.478Z,5.75
2018-07-25T22:51:53.308Z,5.62
2018-07-25T22:54:22.172Z,5.72
2018-07-25T22:56:51.037Z,5.83
2018-07-25T22:59:19.880Z,5.80
2018-07-25T23:01:48.760Z,6.33
2018-07-25T23:04:17.739Z,6.15
2018-07-25T23:06:46.887Z,5.95
2018-07-25T23:09:15.786Z,6.40
2018-07-25T23:11:44.713Z,5.55
2018-07-25T23:14:13.536Z,6.62
2018-07-25T23:16:42.475Z,6.12
2018-07-25T23:19:11.410Z,6.60
2018-07-25T23:21:40.239Z,6.37
2018-07-25T23:24:09.093Z,6.70
2018-07-25T23:26:37.984Z,6.50
2018-07-25T23:29:06.849Z,6.33
2018-07-25T23:31:35.693Z,6.58
2018-07-25T23:34:04.190Z,6.95
2018-07-25T23:36:33.031Z,7.22
2018-07-25T23:39:01.863Z,6.28
2018-07-25T23:41:30.342Z,6.58
2018-07-25T23:43:59.185Z,6.45
2018-07-25T23:46:27.990Z,6.78
2018-07-25T23:48:56.843Z,6.70
2018-07-25T23:51:25.673Z,6.67
2018-07-25T23:53:54.516Z,6.97
2018-07-25T23:56:23.456Z,7.50
2018-07-25T23:58:52.297Z,6.92
